Time;durP1;ratioP1;P1;durP2;ratioP2;P2;SDS_P1;SDS_P2;PMS_P1;PMS_P2;Temp;Humidity;BMP_temperature;BMP_pressure;BME280_temperature;BME280_humidity;BME280_pressure;Samples;Min_cycle;Max_cycle;Signal;HPM_P1;HPM_P2
2023/02/05 00:00:46;;;;;;;17.30;11.40;;;;;;;-0.92;69.04;102377.10;111139;1254;21992;-78
2023/02/05 00:03:54;;;;;;;14.80;9.30;;;;;;;-0.92;69.00;102380.15;110941;1255;22029;-80
2023/02/05 00:06:34;;;;;;;9.60;6.90;;;;;;;-0.95;68.85;102378.00;111019;1247;23041;-78
2023/02/05 00:09:39;;;;;;;9.10;6.50;;;;;;;-0.97;68.78;102379.80;111301;1255;21975;-80
2023/02/05 00:12:35;;;;;;;11.10;7.40;;;;;;;-0.98;68.65;102377.36;111349;1251;21967;-79
2023/02/05 00:15:43;;;;;;;11.80;7.70;;;;;;;-0.99;68.72;102380.38;111303;1255;23042;-80
2023/02/05 00:18:55;;;;;;;9.70;6.50;;;;;;;-0.99;68.53;102387.58;111381;1255;21994;-79
2023/02/05 00:21:57;;;;;;;8.30;6.50;;;;;;;-1.03;68.38;102393.41;110893;1254;21980;-78
2023/02/05 00:24:51;;;;;;;8.90;6.50;;;;;;;-1.02;68.32;102393.43;111175;1254;23927;-78
2023/02/05 00:27:59;;;;;;;9.80;6.60;;;;;;;-1.02;68.14;102393.27;111020;1254;22021;-79
2023/02/05 00:30:52;;;;;;;8.60;6.00;;;;;;;-1.07;67.97;102396.14;111175;1250;23793;-80
2023/02/05 00:33:43;;;;;;;10.80;6.30;;;;;;;-1.09;67.91;102393.81;111447;1250;21977;-80
2023/02/05 00:36:42;;;;;;;12.00;7.40;;;;;;;-1.14;67.86;102396.69;111632;1250;24703;-78
2023/02/05 00:39:29;;;;;;;10.20;7.30;;;;;;;-1.14;67.65;102401.64;111377;1250;22863;-79
2023/02/05 00:42:43;;;;;;;10.90;7.50;;;;;;;-1.18;67.66;102404.89;111528;1250;22449;-81
2023/02/05 00:45:18;;;;;;;10.50;7.00;;;;;;;-1.18;67.65;102416.67;111542;1250;23723;-79
2023/02/05 00:48:06;;;;;;;10.60;7.00;;;;;;;-1.18;67.32;102420.58;111706;1250;22040;-79
2023/02/05 00:50:43;;;;;;;7.60;5.10;;;;;;;-1.22;67.16;102422.13;111597;1250;23782;-79
2023/02/05 00:53:37;;;;;;;8.70;5.40;;;;;;;-1.26;66.89;102425.53;111190;1253;22009;-80
2023/02/05 00:56:11;;;;;;;8.40;5.10;;;;;;;-1.30;66.89;102426.77;110959;1257;23705;-80
2023/02/05 00:58:51;;;;;;;11.80;7.70;;;;;;;-1.34;66.71;102429.48;110067;1253;1899430;-80
2023/02/05 01:01:30;;;;;;;12.40;5.90;;;;;;;-1.37;66.56;102424.21;111385;1253;21977;-80
2023/02/05 01:04:12;;;;;;;6.40;4.80;;;;;;;-1.37;66.67;102418.58;111436;1253;23027;-82
2023/02/05 01:06:48;;;;;;;17.80;6.00;;;;;;;-1.38;66.71;102418.39;111422;1253;21964;-83
2023/02/05 01:09:25;;;;;;;6.60;5.10;;;;;;;-1.41;66.27;102420.96;111390;1253;21997;-81
2023/02/05 01:12:00;;;;;;;8.00;5.00;;;;;;;-1.47;66.33;102417.29;111224;1253;21979;-81
2023/02/05 01:14:36;;;;;;;6.00;4.90;;;;;;;-1.53;66.31;102422.14;111384;1249;22299;-81
2023/02/05 01:17:12;;;;;;;7.40;5.40;;;;;;;-1.59;66.20;102429.36;112012;1241;23067;-81
2023/02/05 01:19:55;;;;;;;5.80;4.80;;;;;;;-1.67;66.23;102429.17;111956;1249;21960;-80
2023/02/05 01:22:36;;;;;;;7.40;4.90;;;;;;;-1.71;66.28;102433.09;111575;1253;22008;-79
2023/02/05 01:25:10;;;;;;;7.30;5.10;;;;;;;-1.74;66.11;102433.48;111379;1253;21998;-79
2023/02/05 01:27:41;;;;;;;6.50;5.50;;;;;;;-1.80;66.19;102431.84;111051;1259;23701;-81
2023/02/05 01:30:17;;;;;;;6.10;4.90;;;;;;;-1.84;66.19;102432.33;111107;1255;22731;-80
2023/02/05 01:32:56;;;;;;;6.50;5.30;;;;;;;-1.91;66.23;102435.77;111049;1255;22993;-81
2023/02/05 01:35:32;;;;;;;10.00;7.00;;;;;;;-1.96;66.21;102431.43;111061;1258;21975;-80
2023/02/05 01:38:14;;;;;;;8.30;5.80;;;;;;;-2.01;66.09;102425.73;110876;1258;22998;-81
2023/02/05 01:41:05;;;;;;;;;;;;;;;;;;;;;
2023/02/05 01:44:28;;;;;;;;;;;;;;;;;;;;;
2023/02/05 01:47:03;;;;;;;8.30;6.70;;;;;;;-2.13;66.51;102422.42;111155;1258;21986;-79
2023/02/05 01:49:45;;;;;;;7.80;5.40;;;;;;;-2.15;66.45;102414.15;110710;1261;22020;-82
2023/02/05 01:52:59;;;;;;;7.30;5.80;;;;;;;-2.20;66.58;102419.71;111248;1252;23601;-81
2023/02/05 01:55:54;;;;;;;13.30;7.70;;;;;;;-2.23;66.66;102425.23;111223;1252;22984;-80
2023/02/05 01:58:34;;;;;;;12.40;8.00;;;;;;;-2.24;66.70;102421.74;111316;1248;21984;-78
2023/02/05 02:01:12;;;;;;;7.70;6.00;;;;;;;-2.26;66.73;102422.52;111421;1253;21951;-80
2023/02/05 02:03:58;;;;;;;8.10;6.50;;;;;;;-2.27;66.71;102421.10;111411;1253;21974;-80
2023/02/05 02:06:53;;;;;;;9.80;6.30;;;;;;;-2.29;66.79;102418.61;111389;1253;22422;-80
2023/02/05 02:09:39;;;;;;;8.00;6.40;;;;;;;-2.29;67.00;102424.42;111442;1253;22821;-80
2023/02/05 02:12:15;;;;;;;8.20;6.50;;;;;;;-2.29;66.92;102421.37;111487;1253;21957;-79
2023/02/05 02:14:53;;;;;;;11.60;7.30;;;;;;;-2.30;66.92;102422.86;111814;1244;23728;-78
2023/02/05 02:17:33;;;;;;;8.50;7.60;;;;;;;-2.32;66.94;102424.78;112014;1244;23282;-79
2023/02/05 02:20:20;;;;;;;13.20;7.60;;;;;;;-2.37;66.96;102422.86;112735;1239;21962;-77
2023/02/05 02:23:49;;;;;;;8.00;7.20;;;;;;;-2.40;66.95;102426.25;112955;1236;22956;-79
2023/02/05 02:27:07;;;;;;;9.70;6.80;;;;;;;-2.52;66.98;102429.11;112678;1239;21986;-80
2023/02/05 02:30:09;;;;;;;11.90;8.00;;;;;;;-2.57;67.09;102430.58;112463;1244;23011;-79
2023/02/05 02:32:49;;;;;;;14.70;10.20;;;;;;;-2.59;67.22;102432.53;112503;1244;22103;-80
2023/02/05 02:35:57;;;;;;;10.50;8.00;;;;;;;-2.58;67.37;102430.04;112223;1244;21957;-79
2023/02/05 02:38:56;;;;;;;12.30;8.00;;;;;;;-2.63;67.40;102431.46;112471;1244;21979;-79
2023/02/05 02:42:07;;;;;;;10.00;7.50;;;;;;;-2.68;67.46;102435.50;112214;1244;22254;-79
2023/02/05 02:45:05;;;;;;;11.50;7.90;;;;;;;-2.73;67.60;102433.86;112365;1244;21966;-81
2023/02/05 02:48:09;;;;;;;11.00;8.00;;;;;;;-2.76;67.76;102432.86;111999;1246;22401;-79
2023/02/05 02:50:56;;;;;;;12.00;7.60;;;;;;;-2.80;67.77;102431.14;112746;1240;21955;-81
2023/02/05 02:53:53;;;;;;;11.90;9.50;;;;;;;-2.82;67.82;102434.80;112526;1241;21983;-82
2023/02/05 02:56:43;;;;;;;12.30;8.40;;;;;;;-2.85;67.90;102433.59;112520;1241;22443;-81
2023/02/05 02:59:51;;;;;;;16.20;8.60;;;;;;;-2.87;68.02;102431.80;112700;1241;21948;-83
2023/02/05 03:02:40;;;;;;;10.30;7.60;;;;;;;-2.91;68.08;102423.58;112879;1241;21946;-81
2023/02/05 03:05:25;;;;;;;11.40;7.60;;;;;;;-2.93;68.23;102420.95;112863;1232;21932;-82
2023/02/05 03:08:22;;;;;;;;;;;;;;;;;;;;;
2023/02/05 03:11:39;;;;;;;12.50;8.50;;;;;;;-2.96;68.30;102422.45;113791;1232;21903;-82
2023/02/05 03:14:15;;;;;;;12.70;9.00;;;;;;;-2.99;68.39;102424.05;113641;1232;22012;-81
2023/02/05 03:16:55;;;;;;;15.00;9.90;;;;;;;-3.01;68.42;102418.52;113731;1232;21975;-81
2023/02/05 03:19:42;;;;;;;14.40;10.60;;;;;;;-3.02;68.46;102422.90;113751;1232;22315;-81
2023/02/05 03:22:15;;;;;;;13.70;11.10;;;;;;;-3.02;68.52;102430.36;113450;1232;22035;-81
2023/02/05 03:24:47;;;;;;;12.20;9.70;;;;;;;-3.04;68.59;102429.41;112976;1238;21942;-80
2023/02/05 03:27:21;;;;;;;16.70;10.50;;;;;;;-3.06;68.69;102428.27;112704;1242;22040;-79
2023/02/05 03:30:08;;;;;;;19.40;13.50;;;;;;;-3.09;68.72;102431.69;112952;1242;21984;-80
2023/02/05 03:33:12;;;;;;;20.00;14.60;;;;;;;-3.13;68.70;102431.14;112732;1241;21926;-80
2023/02/05 03:36:19;;;;;;;19.70;14.10;;;;;;;-3.21;68.66;102429.54;112176;1246;21954;-80
2023/02/05 03:39:33;;;;;;;18.80;16.20;;;;;;;-3.29;68.80;102432.89;112240;1246;21977;-81
2023/02/05 03:42:33;;;;;;;18.70;13.00;;;;;;;-3.35;68.83;102435.65;112235;1243;22377;-82
2023/02/05 03:45:33;;;;;;;19.90;13.10;;;;;;;-3.41;68.87;102433.65;112906;1238;21983;-80
2023/02/05 03:48:51;;;;;;;16.70;11.00;;;;;;;-3.44;68.90;102431.75;113271;1238;21980;-81
2023/02/05 03:51:48;;;;;;;17.90;12.50;;;;;;;-3.49;68.93;102425.20;113343;1238;21955;-80
2023/02/05 03:54:29;;;;;;;18.30;12.80;;;;;;;-3.54;69.02;102424.61;113561;1232;23043;-80
2023/02/05 03:57:41;;;;;;;23.60;14.40;;;;;;;-3.57;69.25;102431.46;113936;1232;21938;-79
2023/02/05 04:00:27;;;;;;;18.70;13.70;;;;;;;-3.57;69.37;102438.23;113150;1239;22998;-80
2023/02/05 04:03:22;;;;;;;19.10;13.10;;;;;;;-3.58;69.51;102438.53;112771;1239;21960;-82
2023/02/05 04:06:06;;;;;;;23.00;14.60;;;;;;;-3.56;69.52;102437.93;113031;1239;21987;-80
2023/02/05 04:08:58;;;;;;;20.80;15.10;;;;;;;-3.57;69.46;102436.86;112822;1239;21966;-79
2023/02/05 04:11:47;;;;;;;18.60;14.50;;;;;;;-3.58;69.47;102437.02;112831;1239;23593;-81
2023/02/05 04:14:31;;;;;;;17.20;12.60;;;;;;;-3.58;69.56;102435.95;113058;1239;24525;-80
2023/02/05 04:17:18;;;;;;;17.50;13.20;;;;;;;-3.59;69.48;102440.69;113239;1239;21965;-81
2023/02/05 04:19:53;;;;;;;19.70;14.50;;;;;;;-3.60;69.55;102441.67;112828;1239;23028;-80
2023/02/05 04:22:35;;;;;;;20.70;17.50;;;;;;;-3.59;69.61;102444.41;112834;1239;21909;-80
2023/02/05 04:25:41;;;;;;;25.60;17.50;;;;;;;-3.60;69.60;102452.18;113241;1236;21960;-80
2023/02/05 04:28:50;;;;;;;;;;;;;;;;;;;;;
2023/02/05 04:31:25;;;;;;;24.00;18.20;;;;;;;-3.63;69.80;102442.48;111977;1244;21982;-79
2023/02/05 04:33:58;;;;;;;22.50;17.70;;;;;;;-3.63;69.91;102446.25;112246;1244;21957;-80
2023/02/05 04:36:43;;;;;;;26.90;17.60;;;;;;;-3.60;69.82;102452.23;112348;1239;21945;-79
2023/02/05 04:39:21;;;;;;;23.90;17.40;;;;;;;-3.59;69.86;102452.27;112236;1244;21992;-80
2023/02/05 04:42:02;;;;;;;24.60;17.40;;;;;;;-3.62;69.76;102454.30;112292;1244;21964;-78
2023/02/05 04:44:58;;;;;;;;;;;;;;;;;;;;;
2023/02/05 04:47:52;;;;;;;24.60;18.20;;;;;;;-3.67;69.81;102461.71;112345;1244;23791;-81
2023/02/05 04:50:28;;;;;;;28.20;19.30;;;;;;;-3.70;69.88;102463.73;112586;1240;22406;-81
2023/02/05 04:53:09;;;;;;;21.80;16.40;;;;;;;-3.71;69.95;102472.36;112671;1244;21967;-82
2023/02/05 04:56:04;;;;;;;20.80;17.10;;;;;;;-3.72;69.93;102476.73;112386;1243;22462;-81
2023/02/05 04:58:40;;;;;;;18.50;14.70;;;;;;;-3.73;70.15;102480.59;112725;1238;23022;-81
2023/02/05 05:01:33;;;;;;;22.20;16.10;;;;;;;-3.70;70.25;102481.27;113152;1238;21960;-81
2023/02/05 05:04:11;;;;;;;23.50;16.40;;;;;;;-3.67;70.39;102477.55;113434;1237;23606;-82
2023/02/05 05:07:09;;;;;;;21.50;16.40;;;;;;;-3.63;70.59;102478.09;113243;1238;21962;-82
2023/02/05 05:10:12;;;;;;;19.20;14.90;;;;;;;-3.59;70.66;102480.48;112904;1241;22988;-81
2023/02/05 05:12:57;;;;;;;18.50;15.30;;;;;;;-3.57;70.82;102478.76;113620;1236;23578;-80
2023/02/05 05:15:35;;;;;;;24.80;15.90;;;;;;;-3.53;70.89;102477.60;113338;1237;23005;-81
2023/02/05 05:18:21;;;;;;;20.50;16.10;;;;;;;-3.49;70.94;102478.48;113289;1237;21958;-80
2023/02/05 05:21:12;;;;;;;22.70;17.10;;;;;;;-3.46;70.97;102478.81;113352;1237;22166;-81
2023/02/05 05:24:02;;;;;;;19.80;16.30;;;;;;;-3.45;70.97;102477.17;112749;1243;21956;-79
2023/02/05 05:26:42;;;;;;;20.30;16.50;;;;;;;-3.46;70.84;102478.81;112650;1243;21970;-80
2023/02/05 05:29:18;;;;;;;21.00;16.20;;;;;;;-3.47;70.86;102475.88;112015;1248;22735;-79
2023/02/05 05:31:51;;;;;;;21.40;16.90;;;;;;;-3.47;70.92;102480.48;111887;1250;21980;-80
2023/02/05 05:34:23;;;;;;;21.40;15.20;;;;;;;-3.46;70.89;102486.50;111482;1254;21981;-81
2023/02/05 05:36:59;;;;;;;22.50;16.90;;;;;;;-3.45;71.12;102489.95;111394;1254;22007;-81
2023/02/05 05:45:48;;;;;;;23.90;17.10;;;;;;;-3.49;71.25;102502.14;111879;1251;22315;-83
2023/02/05 05:48:25;;;;;;;29.30;18.80;;;;;;;-3.49;71.28;102506.40;112007;1246;22027;-81
2023/02/05 05:50:58;;;;;;;19.00;15.10;;;;;;;-3.47;71.38;102506.02;112112;1246;22381;-83
2023/02/05 05:53:56;;;;;;;19.80;14.40;;;;;;;-3.48;71.31;102505.41;112003;1249;22709;-81
2023/02/05 05:56:55;;;;;;;18.30;12.00;;;;;;;-3.49;71.50;102510.46;111647;1248;22551;-84
2023/02/05 05:59:45;;;;;;;19.50;13.10;;;;;;;-3.49;71.66;102515.44;112241;1247;21998;-81
2023/02/05 06:02:38;;;;;;;16.50;11.40;;;;;;;-3.46;71.75;102517.11;112063;1247;21980;-81
2023/02/05 06:05:22;;;;;;;19.60;12.60;;;;;;;-3.43;71.84;102519.65;111988;1245;21991;-81
2023/02/05 06:08:03;;;;;;;16.30;12.50;;;;;;;-3.40;71.89;102523.08;112117;1246;23091;-79
2023/02/05 06:11:00;;;;;;;20.70;14.40;;;;;;;-3.36;71.95;102530.78;112195;1240;21954;-80
2023/02/05 06:13:57;;;;;;;17.40;13.10;;;;;;;-3.37;71.95;102522.23;112722;1239;21959;-82
2023/02/05 06:17:00;;;;;;;;;;;;;;;;;;;;;
2023/02/05 06:19:48;;;;;;;18.80;13.80;;;;;;;-3.27;72.20;102514.36;112786;1240;22500;-78
2023/02/05 06:22:23;;;;;;;21.50;14.70;;;;;;;-3.24;72.08;102518.14;113217;1233;23462;-78
2023/02/05 06:25:08;;;;;;;22.00;16.80;;;;;;;-3.20;72.11;102518.52;113255;1233;23589;-79
2023/02/05 06:27:58;;;;;;;24.50;17.00;;;;;;;-3.15;72.30;102523.90;113316;1233;21943;-83
2023/02/05 06:30:42;;;;;;;27.90;19.40;;;;;;;-3.09;72.28;102531.54;113170;1239;21980;-81
2023/02/05 06:33:16;;;;;;;25.80;19.00;;;;;;;-3.02;72.24;102539.38;112407;1244;21934;-80
2023/02/05 06:35:54;;;;;;;25.00;19.00;;;;;;;-2.96;72.27;102540.41;112361;1244;22061;-79
2023/02/05 06:38:26;;;;;;;28.00;19.80;;;;;;;-2.94;72.09;102538.30;112460;1242;24347;-79
2023/02/05 06:41:28;;;;;;;29.50;22.00;;;;;;;-2.91;72.09;102547.46;112001;1248;21999;-80
2023/02/05 06:44:04;;;;;;;29.40;23.50;;;;;;;-2.91;71.92;102547.27;111932;1245;21972;-80
2023/02/05 06:47:03;;;;;;;32.20;24.50;;;;;;;-2.89;72.00;102551.30;111991;1248;22014;-80
2023/02/05 06:49:50;;;;;;;37.80;27.40;;;;;;;-2.90;71.94;102547.87;112370;1244;22811;-81
2023/02/05 06:52:48;;;;;;;35.00;27.90;;;;;;;-2.86;72.10;102551.30;112319;1244;22434;-80
2023/02/05 06:56:11;;;;;;;35.80;27.60;;;;;;;-2.78;72.38;102558.35;111822;1250;21992;-80
2023/02/05 06:59:55;;;;;;;38.80;28.60;;;;;;;-2.72;72.31;102556.62;111700;1251;22999;-81
2023/02/05 07:03:54;;;;;;;;;;;;;;;;;;;;;
2023/02/05 07:07:15;;;;;;;35.80;26.20;;;;;;;-2.62;72.37;102564.66;111212;1258;21971;-80
2023/02/05 07:10:06;;;;;;;33.90;26.40;;;;;;;-2.55;72.35;102569.79;111150;1254;21852;-81
2023/02/05 07:13:01;;;;;;;31.80;25.10;;;;;;;-2.48;72.17;102573.40;111516;1251;22440;-81
2023/02/05 07:15:59;;;;;;;26.50;20.80;;;;;;;-2.43;72.15;102577.57;111464;1255;21967;-80
2023/02/05 07:19:02;;;;;;;25.80;20.10;;;;;;;-2.39;72.09;102585.42;111764;1251;22293;-80
2023/02/05 07:22:06;;;;;;;26.40;21.10;;;;;;;-2.38;72.02;102589.58;111792;1242;21992;-81
2023/02/05 07:25:16;;;;;;;;;;;;;;;;;;;;;
2023/02/05 07:31:57;;;;;;;27.60;20.60;;;;;;;-2.31;72.13;102601.50;111571;1251;21976;-80
2023/02/05 07:35:38;;;;;;;30.70;21.40;;;;;;;-2.26;72.11;102610.30;111895;1247;22808;-79
2023/02/05 07:39:04;;;;;;;28.80;21.40;;;;;;;-2.21;72.15;102620.79;112573;1242;21949;-79
2023/02/05 07:41:58;;;;;;;27.50;22.10;;;;;;;-2.18;72.03;102622.17;112871;1242;21960;-78
2023/02/05 07:45:02;;;;;;;28.70;20.40;;;;;;;-2.11;72.11;102620.81;113582;1233;22680;-79
2023/02/05 07:48:04;;;;;;;31.70;21.20;;;;;;;-2.07;71.93;102627.30;113122;1238;21969;-79
2023/02/05 07:50:50;;;;;;;24.90;17.40;;;;;;;-2.01;71.97;102629.83;113065;1238;22022;-79
2023/02/05 07:53:37;;;;;;;25.90;18.90;;;;;;;-1.94;71.95;102628.78;113141;1238;21947;-80
2023/02/05 07:56:20;;;;;;;;;;;;;;;;;;;;;
2023/02/05 08:00:06;;;;;;;30.00;23.00;;;;;;;-1.80;71.99;102637.33;113206;1238;21968;-81
2023/02/05 08:03:31;;;;;;;25.60;21.90;;;;;;;-1.71;71.96;102640.69;112987;1238;21952;-80
2023/02/05 08:06:28;;;;;;;;;;;;;;;-1.63;71.93;102643.30;113522;1233;23105;-80
2023/02/05 08:09:55;;;;;;;22.40;15.80;;;;;;;-1.66;71.89;102644.20;113156;1239;21954;-80
2023/02/05 08:13:28;;;;;;;;;;;;;;;;;;;;;
2023/02/05 08:17:01;;;;;;;23.40;17.30;;;;;;;-1.66;71.94;102642.83;112740;1244;21960;-80
2023/02/05 08:20:05;;;;;;;20.80;17.80;;;;;;;-1.57;71.82;102637.42;112005;1247;22311;-79
2023/02/05 08:23:12;;;;;;;25.20;20.70;;;;;;;-1.48;71.73;102633.09;111243;1254;22073;-79
2023/02/05 08:26:33;;;;;;;26.20;18.70;;;;;;;-1.42;71.44;102636.11;111208;1254;21979;-79
2023/02/05 08:29:24;;;;;;;33.30;28.20;;;;;;;-1.37;71.26;102638.73;111312;1254;23073;-80
2023/02/05 08:32:11;;;;;;;31.30;23.30;;;;;;;-1.27;71.49;102636.30;111210;1255;21990;-79
2023/02/05 08:34:48;;;;;;;26.10;19.10;;;;;;;-1.18;71.47;102636.05;111167;1256;23693;-77
2023/02/05 08:37:34;;;;;;;29.50;24.30;;;;;;;-1.10;71.21;102635.58;111268;1251;22426;-76
2023/02/05 08:40:13;;;;;;;20.30;14.80;;;;;;;-1.06;70.80;102634.21;111592;1250;21999;-77
2023/02/05 08:43:07;;;;;;;18.40;13.50;;;;;;;-1.07;70.64;102639.66;111422;1246;21969;-78
2023/02/05 08:46:17;;;;;;;18.60;14.50;;;;;;;-1.03;70.73;102638.95;112416;1242;21951;-78
2023/02/05 08:49:59;;;;;;;;;;;;;;;;;;;;;
2023/02/05 08:53:00;;;;;;;19.80;14.50;;;;;;;-0.85;70.76;102643.39;112389;1244;22880;-78
2023/02/05 08:56:04;;;;;;;25.20;15.90;;;;;;;-0.77;70.50;102645.27;113234;1237;24289;-78
2023/02/05 08:59:00;;;;;;;21.60;17.40;;;;;;;-0.71;70.42;102645.36;113103;1237;21957;-77
2023/02/05 09:01:50;;;;;;;25.30;19.30;;;;;;;-0.69;70.05;102643.61;113104;1237;22219;-79
2023/02/05 09:04:38;;;;;;;19.50;14.20;;;;;;;-0.67;69.68;102641.83;112870;1237;23717;-78
2023/02/05 09:07:46;;;;;;;22.50;14.80;;;;;;;-0.65;69.40;102645.67;112553;1242;21962;-79
2023/02/05 09:11:04;;;;;;;19.90;15.00;;;;;;;-0.67;69.41;102641.66;112662;1242;21973;-79
2023/02/05 09:13:42;;;;;;;26.00;18.40;;;;;;;-0.58;69.53;102638.94;113003;1240;23021;-80
2023/02/05 09:16:32;;;;;;;27.80;17.10;;;;;;;-0.49;69.23;102635.61;112501;1237;21944;-80
2023/02/05 09:19:40;;;;;;;22.30;15.60;;;;;;;-0.49;68.79;102635.09;112906;1242;23704;-78
2023/02/05 09:22:24;;;;;;;41.00;30.70;;;;;;;-0.46;68.86;102635.36;112248;1246;23613;-78
2023/02/05 09:25:26;;;;;;;23.90;16.40;;;;;;;-0.37;68.84;102636.46;111474;1252;23117;-78
2023/02/05 09:28:47;;;;;;;21.40;14.90;;;;;;;-0.29;68.52;102641.93;111864;1252;22081;-80
2023/02/05 09:31:45;;;;;;;;;;;;;;;-0.24;68.28;102646.11;111700;1248;23619;-77
2023/02/05 09:34:26;;;;;;;23.10;15.10;;;;;;;-0.20;68.46;102648.16;112258;1248;23714;-78
2023/02/05 09:37:18;;;;;;;;;;;;;;;;;;;;;
2023/02/05 09:40:48;;;;;;;;;;;;;;;;;;;;;
2023/02/05 09:44:22;;;;;;;19.70;14.00;;;;;;;-0.09;67.30;102652.38;112752;1242;22427;-79
2023/02/05 09:47:52;;;;;;;22.50;17.00;;;;;;;-0.06;67.51;102652.70;112697;1242;22161;-79
2023/02/05 09:51:01;;;;;;;25.20;16.30;;;;;;;0.08;67.51;102653.44;112242;1241;23592;-78
2023/02/05 09:54:25;;;;;;;21.50;15.50;;;;;;;0.16;67.24;102651.05;112809;1242;22966;-78
2023/02/05 09:57:41;;;;;;;20.70;16.30;;;;;;;0.27;67.07;102649.60;113396;1237;22025;-78
2023/02/05 10:01:18;;;;;;;;;;;;;;;;;;;;;
2023/02/05 10:04:35;;;;;;;36.10;24.10;;;;;;;0.25;66.03;102643.88;113453;1237;21962;-79
2023/02/05 10:08:30;;;;;;;28.60;20.80;;;;;;;0.23;66.16;102640.56;113321;1232;22014;-81
2023/02/05 10:11:58;;;;;;;30.00;20.80;;;;;;;0.29;66.24;102637.02;112690;1241;21985;-79
2023/02/05 10:15:34;;;;;;;22.20;16.90;;;;;;;0.32;65.91;102637.15;112769;1241;21949;-79
2023/02/05 10:19:14;;;;;;;19.00;15.70;;;;;;;0.29;65.56;102627.42;113112;1241;22007;-79
2023/02/05 10:23:02;;;;;;;;;;;;;;;;;;;;;
2023/02/05 10:27:41;;;;;;;21.00;14.50;;;;;;;0.43;65.85;102607.40;112307;1246;22002;-81
2023/02/05 10:31:36;;;;;;;21.10;14.00;;;;;;;0.79;66.27;102602.16;111121;1258;22821;-78
2023/02/05 10:35:28;;;;;;;;;;;;;;;;;;;;;
2023/02/05 10:39:49;;;;;;;18.70;12.30;;;;;;;1.10;65.28;102592.04;110693;1264;21815;-78
2023/02/05 10:43:37;;;;;;;25.50;19.60;;;;;;;1.18;64.58;102585.95;109806;1270;22009;-78
2023/02/05 10:47:00;;;;;;;;;;;;;;;;;;;;;
2023/02/05 10:50:54;;;;;;;14.30;10.80;;;;;;;1.40;64.25;102582.98;109698;1270;22009;-80
2023/02/05 10:54:13;;;;;;;14.50;11.60;;;;;;;1.79;64.77;102577.96;109583;1270;24452;-78
2023/02/05 10:57:16;;;;;;;14.20;11.90;;;;;;;2.36;63.46;102583.27;109676;1267;22054;-80
2023/02/05 11:01:08;;;;;;;15.80;12.10;;;;;;;2.76;62.43;102576.06;110121;1267;22004;-79
2023/02/05 11:04:08;;;;;;;13.30;12.00;;;;;;;3.99;65.39;102573.19;110406;1262;22344;-81
2023/02/05 11:07:10;;;;;;;22.50;15.60;;;;;;;5.08;61.36;102570.86;110932;1255;22262;-80
2023/02/05 11:10:04;;;;;;;;;;;;;;;;;;;;;
2023/02/05 11:13:27;;;;;;;15.40;12.50;;;;;;;5.01;56.14;102570.21;112058;1247;23008;-80
2023/02/05 11:16:38;;;;;;;18.40;13.10;;;;;;;4.25;55.54;102568.34;111992;1247;23018;-79
2023/02/05 11:20:07;;;;;;;16.40;13.30;;;;;;;3.73;55.36;102577.22;111538;1249;23732;-79
2023/02/05 11:24:13;;;;;;;20.30;14.90;;;;;;;2.93;55.06;102578.80;111376;1253;22992;-80
2023/02/05 11:28:30;;;;;;;;;;;;;;;;;;;;;
2023/02/05 11:32:02;;;;;;;19.20;12.10;;;;;;;1.72;56.95;102583.56;111403;1253;21974;-78
2023/02/05 11:35:35;;;;;;;17.90;12.40;;;;;;;1.28;56.99;102591.98;111015;1256;21987;-80
2023/02/05 11:39:22;;;;;;;23.80;14.80;;;;;;;0.94;57.33;102591.57;110992;1257;21973;-82
2023/02/05 11:51:25;;;;;;;13.30;10.50;;;;;;;0.24;58.37;102597.42;110399;1266;22368;-79
2023/02/05 11:54:44;;;;;;;;;;;;;;;;;;;;;
2023/02/05 12:01:43;;;;;;;16.10;10.10;;;;;;;0.01;58.23;102601.27;111108;1258;21993;-81
2023/02/05 12:05:10;;;;;;;11.50;7.80;;;;;;;-0.06;58.13;102596.73;110986;1258;22089;-81
2023/02/05 12:09:04;;;;;;;16.90;11.30;;;;;;;-0.14;58.10;102593.82;111413;1250;22596;-82
2023/02/05 12:17:09;;;;;;;26.90;14.40;;;;;;;-0.19;58.07;102582.11;110961;1258;23783;-82
2023/02/05 12:21:15;;;;;;;23.30;16.20;;;;;;;-0.31;57.85;102569.29;111029;1257;22399;-79
2023/02/05 12:25:03;;;;;;;24.20;16.30;;;;;;;-0.46;58.03;102558.89;111052;1258;22039;-81
2023/02/05 12:29:30;;;;;;;27.60;18.40;;;;;;;-0.49;58.34;102554.52;110941;1258;22491;-81
2023/02/05 12:33:33;;;;;;;26.80;17.70;;;;;;;-0.52;58.47;102558.30;110697;1266;22001;-82
2023/02/05 12:37:00;;;;;;;25.30;20.30;;;;;;;-0.56;58.53;102552.34;110612;1266;22008;-79
2023/02/05 12:45:53;;;;;;;;;;;;;;;;;;;;;
2023/02/05 12:49:29;;;;;;;27.70;20.30;;;;;;;-0.56;58.99;102522.21;109249;1274;22036;-81
2023/02/05 12:52:49;;;;;;;24.50;18.80;;;;;;;-0.48;59.12;102521.54;109808;1265;23763;-80
2023/02/05 12:56:11;;;;;;;24.50;18.30;;;;;;;-0.41;59.10;102524.75;110400;1266;22007;-77
2023/02/05 12:59:28;;;;;;;23.10;18.30;;;;;;;-0.36;59.13;102530.41;106320;1267;4859250;-79
2023/02/05 13:02:57;;;;;;;27.00;20.00;;;;;;;-0.36;59.07;102532.49;110098;1260;22566;-81
2023/02/05 13:06:23;;;;;;;27.20;17.80;;;;;;;-0.48;58.88;102525.48;110930;1260;21994;-79
2023/02/05 13:10:07;;;;;;;;;;;;;;;;;;;;;
2023/02/05 13:13:10;;;;;;;28.20;20.60;;;;;;;-0.58;58.89;102527.80;110875;1262;21967;-78
2023/02/05 13:16:13;;;;;;;33.30;23.80;;;;;;;-0.58;58.78;102529.65;110255;1262;21990;-78
2023/02/05 13:19:26;;;;;;;30.20;22.70;;;;;;;-0.58;58.93;102534.80;110283;1262;23605;-77
2023/02/05 13:29:56;;;;;;;26.40;18.70;;;;;;;-0.64;59.19;102530.79;111810;1252;21974;-78
2023/02/05 13:33:19;;;;;;;18.10;13.70;;;;;;;-0.61;59.08;102528.86;111445;1256;23054;-78
2023/02/05 13:36:19;;;;;;;24.80;17.40;;;;;;;-0.62;58.75;102527.61;111101;1255;21986;-81
2023/02/05 13:39:24;;;;;;;26.80;18.90;;;;;;;-0.64;58.65;102523.95;111740;1253;23740;-80
2023/02/05 13:43:15;;;;;;;24.50;16.60;;;;;;;-0.66;58.89;102522.67;111623;1255;21963;-80
2023/02/05 13:46:47;;;;;;;24.40;16.30;;;;;;;-0.68;58.85;102520.02;111889;1247;23738;-81
2023/02/05 13:50:58;;;;;;;27.20;18.10;;;;;;;-0.67;58.78;102519.70;111820;1253;21985;-81
2023/02/05 13:54:17;;;;;;;29.00;18.30;;;;;;;-0.62;58.93;102520.80;111201;1259;21973;-81
2023/02/05 13:57:49;;;;;;;27.70;19.70;;;;;;;-0.55;58.83;102518.16;111114;1259;21952;-76
2023/02/05 14:00:51;;;;;;;;;;;;;;;;;;;;;
2023/02/05 14:04:45;;;;;;;27.40;19.10;;;;;;;-0.46;58.72;102520.27;111281;1255;22728;-82
2023/02/05 14:07:56;;;;;;;23.90;17.10;;;;;;;-0.48;58.70;102529.09;111238;1255;21963;-80
2023/02/05 14:11:18;;;;;;;;;;;;;;;-0.51;58.65;102536.84;112063;1248;21970;-82
2023/02/05 14:15:18;;;;;;;22.90;15.70;;;;;;;-0.61;58.56;102542.71;112087;1249;23008;-80
2023/02/05 14:18:47;;;;;;;22.40;16.10;;;;;;;-0.65;58.40;102543.91;111898;1249;23695;-79
2023/02/05 14:22:20;;;;;;;20.80;14.60;;;;;;;-0.69;58.22;102545.98;111754;1251;21950;-79
2023/02/05 14:25:29;;;;;;;20.40;14.40;;;;;;;-0.71;58.18;102553.05;111619;1251;22953;-81
2023/02/05 14:29:26;;;;;;;15.30;12.40;;;;;;;-0.78;58.24;102567.64;112082;1243;21966;-79
2023/02/05 14:32:30;;;;;;;19.60;13.70;;;;;;;-0.84;58.20;102569.41;111968;1247;24302;-80
2023/02/05 14:36:16;;;;;;;18.10;13.00;;;;;;;-0.87;58.12;102566.38;112163;1244;23681;-79
2023/02/05 14:39:24;;;;;;;20.20;13.10;;;;;;;-0.92;58.08;102556.58;111959;1243;21995;-78
2023/02/05 14:42:44;;;;;;;14.40;11.20;;;;;;;-0.95;58.18;102555.91;111561;1253;22869;-80
2023/02/05 14:46:11;;;;;;;18.20;12.50;;;;;;;-1.00;58.31;102546.48;111430;1253;21983;-84
2023/02/05 14:49:08;;;;;;;20.30;13.80;;;;;;;-0.98;58.18;102552.55;111774;1254;21987;-83
2023/02/05 14:53:13;;;;;;;19.70;14.90;;;;;;;-0.98;58.16;102550.48;112274;1250;21966;-83
2023/02/05 14:56:53;;;;;;;21.70;15.80;;;;;;;-1.01;58.23;102544.55;110916;1261;22832;-84
2023/02/05 15:00:45;;;;;;;;;;;;;;;;;;;;;
2023/02/05 15:04:24;;;;;;;26.50;16.00;;;;;;;-1.09;58.43;102559.09;110206;1265;23755;-87
2023/02/05 15:07:24;;;;;;;27.50;18.90;;;;;;;-1.11;58.49;102569.08;110379;1262;21983;-84
2023/02/05 15:11:07;;;;;;;23.70;16.60;;;;;;;-1.16;58.53;102572.91;110994;1262;23606;-84
2023/02/05 15:14:31;;;;;;;23.20;15.90;;;;;;;-1.21;58.61;102564.34;110931;1261;23739;-83